Terminal Aerodrome Forecast
Issued by NWS

Home | Current Version | Previous Version | Text Only | Print | Product List | Glossary On
Versions: 1 2 3 4 5 6 7 8 9 10 11 12 13 14 15 16 17 18 19 20 21 22 23
281
FTUS44 KSJT 251121
TAFSOA
TAF
KSOA 251121Z 2512/2612 19010KT P6SM SKC
     FM251500 20015G23KT P6SM SKC
     FM260100 18008KT P6SM SKC=

USA.gov is the U.S. government's official web portal to all federal, state and local government web resources and services.